Wayland, Ohio
Current Conditions -  °F | °C
As of 6:21 PM on Tuesday 25 Nov 2014 (Local Time) from KPOV Reporting Station
Overcast Overcast  
Wind Chill: -2°   Ceiling: 2500
Heat Index:   Visibility: 10mi
Dew Point: -4°   Wind: 8mph
Humidity: 68%   Direction: 260°W
Pressure: 30.12"   Gusts: NA
Location:  41.16°N, 81.07°W
Report Text: KPOV 252321Z AUTO 26007KT 10SM OVC025 02/M04 A3012 RMK AO2 T00151039
Loading
Personal Weather Stations






























Interactive Weather Map New forecast layout! Learn more

10-Day Weather Forecast

Advertisements
Track Severe Weather on mobile